Terminal Aerodrome Forecast
Issued by NWS Wichita, KS

Home | Current Version | Previous Version | Graphics & Text | Print | Product List | Glossary On
Versions: 1 2 3 4 5 6 7 8 9 10 11 12 13 14 15 16 17 18 19 20
000
FTUS43 KICT 291330 AAB
TAFICT
TAF AMD
KICT 291330Z 2914/3012 02013KT P6SM VCTS SCT020 BKN070CB
      TEMPO 2914/2918 VRB15G25KT 5SM TSRA BKN025CB OVC060
     FM292000 06013KT P6SM VCSH SCT080=

USA.gov is the U.S. government's official web portal to all federal, state and local government web resources and services.